ODS645 LROP-EDDF
Flight info
| Callsign | ODS645 |
|---|---|
| Flight time | N/A |
| Altitude | 34000 |
| Route | SOKRU DCT OXDOC DCT DEGET DCT ARSIN DCT SUBEN DCT AKINI T161 DEBHI DEBHI1C |
| Aircraft | MD82/M-SDFGIRWY/C |
Departure
| Time | 2026-04-30 11:10 |
|---|---|
| Airport | Bucharest Henri Coandă International Airport (LROP) |
Arrival
| Time | N/A |
|---|---|
| Airport | Frankfurt Main Airport (EDDF) |
| Time | Latitude | Longitude | Altitude | Speed | Heading |
|---|---|---|---|---|---|
| 2026-04-30 10:54 | 44.56923 | 26.09525 | 308 ft | 0 kts | 175° |
| 2026-04-30 10:59 | 44.56924 | 26.09525 | 308 ft | 0 kts | 175° |
| 2026-04-30 10:59 | 44.56937 | 26.09523 | 308 ft | 2 kts | 181° |
| 2026-04-30 10:59 | 44.56952 | 26.09527 | 308 ft | 2 kts | 199° |
| 2026-04-30 10:59 | 44.56966 | 26.09535 | 308 ft | 2 kts | 211° |
| 2026-04-30 11:00 | 44.56978 | 26.09548 | 308 ft | 2 kts | 225° |
| 2026-04-30 11:00 | 44.56988 | 26.09564 | 308 ft | 2 kts | 238° |
| 2026-04-30 11:00 | 44.56995 | 26.09583 | 308 ft | 2 kts | 251° |
| 2026-04-30 11:00 | 44.56997 | 26.09597 | 308 ft | 0 kts | 261° |
| 2026-04-30 11:01 | 44.56998 | 26.09606 | 308 ft | 0 kts | 263° |
| 2026-04-30 11:04 | 44.56997 | 26.09599 | 308 ft | 2 kts | 263° |
| 2026-04-30 11:04 | 44.56995 | 26.09573 | 308 ft | 6 kts | 263° |
| 2026-04-30 11:04 | 44.56987 | 26.09480 | 308 ft | 11 kts | 263° |
| 2026-04-30 11:05 | 44.56979 | 26.09377 | 308 ft | 10 kts | 263° |
| 2026-04-30 11:05 | 44.56970 | 26.09275 | 306 ft | 10 kts | 263° |
| 2026-04-30 11:05 | 44.56960 | 26.09166 | 305 ft | 11 kts | 263° |
| 2026-04-30 11:05 | 44.56951 | 26.09061 | 305 ft | 11 kts | 263° |
| 2026-04-30 11:06 | 44.56941 | 26.08945 | 305 ft | 12 kts | 263° |
| 2026-04-30 11:06 | 44.56929 | 26.08812 | 304 ft | 13 kts | 263° |
| 2026-04-30 11:06 | 44.56922 | 26.08691 | 306 ft | 10 kts | 270° |
| 2026-04-30 11:06 | 44.56927 | 26.08598 | 307 ft | 8 kts | 288° |
| 2026-04-30 11:07 | 44.56963 | 26.08552 | 307 ft | 6 kts | 336° |
| 2026-04-30 11:07 | 44.57019 | 26.08535 | 308 ft | 10 kts | 353° |
| 2026-04-30 11:07 | 44.57114 | 26.08520 | 310 ft | 16 kts | 354° |
| 2026-04-30 11:07 | 44.57250 | 26.08502 | 311 ft | 22 kts | 355° |
| 2026-04-30 11:08 | 44.57401 | 26.08481 | 311 ft | 20 kts | 353° |
| 2026-04-30 11:08 | 44.57536 | 26.08461 | 311 ft | 18 kts | 355° |
| 2026-04-30 11:08 | 44.57646 | 26.08475 | 311 ft | 14 kts | 43° |
| 2026-04-30 11:08 | 44.57664 | 26.08523 | 311 ft | 0 kts | 79° |
| 2026-04-30 11:09 | 44.57665 | 26.08532 | 311 ft | 3 kts | 79° |
| 2026-04-30 11:09 | 44.57680 | 26.08671 | 311 ft | 42 kts | 83° |
| 2026-04-30 11:09 | 44.57740 | 26.09431 | 312 ft | 112 kts | 84° |
| 2026-04-30 11:10 | 44.57847 | 26.10782 | 429 ft | 159 kts | 81° |
| 2026-04-30 11:10 | 44.57921 | 26.12244 | 1276 ft | 131 kts | 85° |
| 2026-04-30 11:10 | 44.57939 | 26.13418 | 1312 ft | 119 kts | 85° |
| 2026-04-30 11:10 | 44.57966 | 26.14739 | 1656 ft | 156 kts | 84° |
| 2026-04-30 11:11 | 44.58017 | 26.16246 | 2811 ft | 166 kts | 85° |
| 2026-04-30 11:11 | 44.58104 | 26.18009 | 3031 ft | 200 kts | 85° |
| 2026-04-30 11:11 | 44.58217 | 26.20089 | 3213 ft | 231 kts | 84° |
| 2026-04-30 11:11 | 44.58360 | 26.22595 | 3165 ft | 279 kts | 84° |